CMB weather

Bandaranaike International Colombo Airport
Colombo, Western Province, Sri Lanka

Public forecast

Using degrees Celsius for public forecast. Weather courtesy of forecast.io.

METAR (pilot weather report)

Retrieved 2017/02/24 07:10 UTC (47 minutes ago):

VCBI 240710Z 25006KT 210V300 9999 FEW017 FEW018TCU 30/23 Q1012 NOSIG RMK NE

TAF (pilot weather forecast)

Forecast is more than 12 hours old.

Retrieved 2017/02/21 18:34 UTC (3 days ago):

TAF VCBI 211540Z 2118/2224 16005KT 9999 FEW018 TX31/2208Z TN25/2200Z TEMPO 2123/2202 7000 BECMG 2203/2205 27008KT